Hinkley, CA (92347)

2:21 PM PDT on July 24, 2014 (GMT -0700)
BYRD STATION (KCAHELEN1) Elev 2488 ft | 34.74 °N, 117.35 °W | Change Station

Current weather conditions updated 0 second ago

Clear
Clear
104.3 °F
Feels Like 99 °F
N
2.0
Wind Variable Wind from NW
Gusts 19.0 mph

Today is forecast to be nearly the same temperature as yesterday.

Today
High -- | Low -- °F
--% Chance of Precip.
Yesterday
High -- | Low -- °F
Precip. -- in
5:52 AM 7:57 PM
Waning Crescent, 4% visible
Pressure 29.75 in
Visibility 10.0 miles
Clouds Clear
Heat Index 99 °F
Dew Point 37 °F
Humidity 10%
Rainfall 0.00 in
Snow Depth Not available.
UV 12 out of 12
Pollen 3.90 out of 12
Ozone Good
Flu Activity Not available.
METAR KDAG 242050Z AUTO 32006KT 10SM CLR 41/M03 A2985 RMK AO2 SLP075 T04061033 58023

More Conditions Fewer Conditions

Pressure 29.75 in
Visibility 10.0 miles
Clouds Clear
Heat Index 99 °F
Dew Point 37 °F
Humidity 10%
Rainfall 0.00 in
Snow Depth Not available.
UV 12 out of 12
Pollen 3.90 out of 12
Ozone Good
Flu Activity Not available.
METAR KDAG 242050Z AUTO 32006KT 10SM CLR 41/M03 A2985 RMK AO2 SLP075 T04061033 58023

More Conditions Fewer Conditions

10-Day Weather Forecast

Almanac

Astronomy

Jul. 24, 2014 Rise Set
Actual Time 5:52 AM PDT 7:57 PM PDT
Civil Twilight 5:24 AM PDT 8:25 PM PDT
Nautical Twilight 4:49 AM PDT 9:00 PM PDT
Astronomical Twilight 4:12 AM PDT 9:37 PM PDT
Moon 4:03 AM PDT 6:17 PM PDT
Length of Visible Light 15h 01m
Length of Day
14h 05m
Tomorrow will be 1m 25s shorter.
Waning Crescent, 4% of the Moon is Illuminated
Today
Waning Crescent
Jul 26
New
Aug 3
First Quarter
Aug 10
Full
Aug 17
Last Quarter

Today's Extremes

State Highs State Lows

Community

WunderPhotos

Upload Photos

1,737,133 photos uploaded!

WunderBlogs® & News

Nearby

Air Quality

  Air Quality AQ Index Pollutant
Yesterday Good
OZONE
Current Good
OZONE
Friday Moderate
OZONE
Friday Good
PM10
Friday Good
CO
Friday Good
NO2

Snow Depth

Station Depth Elevation
Leavitt Meadows 0 in 7200 ft
Monitor Pass 0 in 8350 ft
Echo Peak 0 in 7800 ft
Fallen Leaf 0 in 6300 ft
Tahoe City Cross 0 in 6750 ft

Earthquake Activity

City Distance Mag. Time & Date
Bear Valley Springs, California 82 miles 2.7 6:04 PM PDT
2014-07-17
Minimum magnitude displayed is 2.5.

Coastal Water Temperatures

Place Temperature
No Stations Reporting

Nearby Weather Stations

Station Location Temp. Heat Index Dew Point Humidity Wind Precip. Elev Updated Type
BYRD STATION, Helendale (Silver Lakes), CA 104.3 °F 99 °F 37 °F 10% NW  at  2.0 mph 0.00 in / hr 2488 ft 2:21 PM PDT Rapid Fire
RAWS APPLE VALLEY 2 CA, Apple Valley, CA 105 °F 99 °F 29 °F 7% WSW  at  1 mph 0.00 in / hr 3159 ft 12:50 PM PDT MADIS

Show More Stations Show Fewer Stations